createdAt,value
2023-01-23T00:02:40.602Z,95021.00
2023-01-23T00:06:44.657Z,95005.00
2023-01-23T00:10:49.710Z,95046.00
2023-01-23T00:14:55.614Z,95026.00
2023-01-23T00:18:59.635Z,95017.00
2023-01-23T00:23:03.135Z,95021.00
2023-01-23T00:28:14.582Z,95010.00
2023-01-23T00:32:19.536Z,95002.00
2023-01-23T00:37:23.569Z,95013.00
2023-01-23T00:41:27.200Z,95020.00
2023-01-23T00:45:30.727Z,95028.00
2023-01-23T00:49:54.037Z,95015.00
2023-01-23T00:53:57.851Z,95039.00
2023-01-23T00:58:16.094Z,95022.00
2023-01-23T01:02:19.641Z,95004.00
2023-01-23T01:06:25.142Z,94997.00
2023-01-23T01:10:29.781Z,95041.00
2023-01-23T01:14:37.542Z,95014.00
2023-01-23T01:18:41.559Z,95037.00
2023-01-23T01:22:46.845Z,95028.00
2023-01-23T01:27:15.620Z,95015.00
2023-01-23T01:31:20.490Z,95014.00
2023-01-23T01:35:24.797Z,95025.00
2023-01-23T01:39:29.692Z,94999.00
2023-01-23T01:44:00.357Z,95014.00
2023-01-23T01:49:18.033Z,95019.00
2023-01-23T01:53:24.097Z,94999.00
2023-01-23T01:57:56.351Z,95034.00
2023-01-23T02:06:27.867Z,95035.00
2023-01-23T02:10:32.577Z,95012.00
2023-01-23T02:15:34.336Z,95031.00
2023-01-23T02:20:16.969Z,95041.00
2023-01-23T02:24:29.431Z,95033.00
2023-01-23T02:28:44.101Z,95033.00
2023-01-23T02:32:50.234Z,95000.00
2023-01-23T02:36:55.232Z,95026.00
2023-01-23T02:41:02.075Z,95034.00
2023-01-23T02:45:08.328Z,95040.00
2023-01-23T02:50:16.623Z,95031.00
2023-01-23T02:54:20.447Z,95035.00
2023-01-23T02:58:41.601Z,95026.00
2023-01-23T03:02:47.494Z,95002.00
2023-01-23T03:06:51.254Z,94989.00
2023-01-23T03:10:55.953Z,95016.00
2023-01-23T03:14:59.463Z,94991.00
2023-01-23T03:19:08.377Z,95016.00
2023-01-23T03:23:12.927Z,94993.00
2023-01-23T03:27:16.933Z,94980.00
2023-01-23T03:31:26.113Z,94973.00
2023-01-23T03:35:34.747Z,94991.00
2023-01-23T03:45:01.434Z,95000.00
2023-01-23T03:49:08.272Z,95002.00
2023-01-23T03:53:38.245Z,95016.00
2023-01-23T03:57:43.410Z,94994.00
2023-01-23T04:01:52.856Z,95033.00
2023-01-23T04:06:19.378Z,95024.00
2023-01-23T04:10:26.342Z,95015.00
2023-01-23T04:14:38.461Z,95028.00
2023-01-23T04:18:42.139Z,95018.00
2023-01-23T04:22:45.862Z,95032.00
2023-01-23T04:26:50.928Z,95011.00
2023-01-23T04:30:55.232Z,95021.00
2023-01-23T04:35:07.654Z,95013.00
2023-01-23T04:39:14.074Z,94993.00
2023-01-23T04:43:26.701Z,95034.00
2023-01-23T04:47:31.107Z,95040.00
2023-01-23T04:51:35.581Z,95030.00
2023-01-23T04:55:39.325Z,95016.00
2023-01-23T04:59:48.918Z,95051.00
2023-01-23T05:04:17.688Z,95051.00
2023-01-23T05:08:23.375Z,95018.00
2023-01-23T05:12:39.396Z,95072.00
2023-01-23T05:17:07.524Z,95055.00
2023-01-23T05:21:22.219Z,95035.00
2023-01-23T05:25:27.785Z,95012.00
2023-01-23T05:29:57.511Z,95057.00
2023-01-23T05:34:04.781Z,95051.00
2023-01-23T05:38:11.057Z,95054.00
2023-01-23T05:42:14.628Z,95060.00
2023-01-23T05:53:03.246Z,95062.00
2023-01-23T05:57:11.152Z,95074.00
2023-01-23T06:01:23.625Z,95084.00
2023-01-23T06:06:12.823Z,95091.00
2023-01-23T06:10:19.676Z,95103.00
2023-01-23T06:14:23.391Z,95094.00
2023-01-23T06:18:29.377Z,95082.00
2023-01-23T06:22:33.305Z,95096.00
2023-01-23T06:27:01.351Z,95061.00
2023-01-23T06:31:06.652Z,95073.00
2023-01-23T06:35:29.657Z,95070.00
2023-01-23T06:39:34.348Z,95088.00
2023-01-23T06:43:41.058Z,95106.00
2023-01-23T06:47:57.880Z,95082.00
2023-01-23T06:52:36.006Z,95102.00
2023-01-23T06:56:39.596Z,95109.00
2023-01-23T07:01:32.965Z,95115.00
2023-01-23T07:06:22.265Z,95117.00
2023-01-23T07:10:26.599Z,95084.00
2023-01-23T07:14:30.172Z,95108.00
2023-01-23T07:18:34.526Z,95119.00
2023-01-23T07:23:07.118Z,95112.00
2023-01-23T07:27:10.702Z,95102.00
2023-01-23T07:31:14.652Z,95109.00
2023-01-23T07:35:18.421Z,95111.00
2023-01-23T07:39:24.826Z,95141.00
2023-01-23T07:43:28.695Z,95141.00
2023-01-23T07:47:32.193Z,95126.00
2023-01-23T07:57:30.472Z,95119.00
2023-01-23T08:01:36.248Z,95132.00
2023-01-23T08:06:07.256Z,95154.00
2023-01-23T08:10:12.548Z,95150.00
2023-01-23T08:14:17.483Z,95154.00
2023-01-23T08:18:27.177Z,95125.00
2023-01-23T08:22:31.052Z,95158.00
2023-01-23T08:26:36.102Z,95129.00
2023-01-23T08:30:41.155Z,95163.00
2023-01-23T08:34:44.749Z,95151.00
2023-01-23T08:38:48.273Z,95169.00
2023-01-23T08:43:18.021Z,95167.00
2023-01-23T08:47:23.031Z,95174.00
2023-01-23T08:51:27.449Z,95169.00
2023-01-23T08:56:12.836Z,95190.00
2023-01-23T09:00:18.908Z,95191.00
2023-01-23T09:04:24.245Z,95204.00
2023-01-23T09:08:27.713Z,95175.00
2023-01-23T09:12:36.103Z,95188.00
2023-01-23T09:16:41.003Z,95174.00
2023-01-23T09:20:46.231Z,95176.00
2023-01-23T09:24:49.848Z,95183.00
2023-01-23T09:28:53.616Z,95182.00
2023-01-23T09:33:27.337Z,95206.00
2023-01-23T09:37:58.593Z,95202.00
2023-01-23T09:42:52.298Z,95207.00
2023-01-23T09:47:02.829Z,95177.00
2023-01-23T09:51:28.439Z,95177.00
2023-01-23T09:55:44.355Z,95169.00
2023-01-23T10:00:00.712Z,95193.00
2023-01-23T10:04:05.898Z,95192.00
2023-01-23T10:09:11.889Z,95187.00
2023-01-23T10:13:20.120Z,95172.00
2023-01-23T10:17:35.696Z,95182.00
2023-01-23T10:22:29.336Z,95186.00
2023-01-23T10:26:35.773Z,95174.00
2023-01-23T10:30:43.446Z,95158.00
2023-01-23T10:34:58.437Z,95147.00
2023-01-23T10:39:05.697Z,95129.00
2023-01-23T10:44:05.533Z,95151.00
2023-01-23T10:48:41.465Z,95145.00
2023-01-23T10:52:46.873Z,95141.00
2023-01-23T10:57:24.178Z,95140.00
2023-01-23T11:01:29.326Z,95137.00
2023-01-23T11:06:26.103Z,95157.00
2023-01-23T11:10:31.058Z,95152.00
2023-01-23T11:14:34.651Z,95115.00
2023-01-23T11:19:28.978Z,95135.00
2023-01-23T11:23:32.878Z,95122.00
2023-01-23T11:27:41.382Z,95141.00
2023-01-23T11:31:45.269Z,95122.00
2023-01-23T11:36:07.391Z,95119.00
2023-01-23T11:40:15.591Z,95115.00
2023-01-23T11:50:19.735Z,95108.00
2023-01-23T11:54:45.312Z,95086.00
2023-01-23T11:59:17.506Z,95111.00
2023-01-23T12:03:56.349Z,95115.00
2023-01-23T12:08:33.092Z,95107.00
2023-01-23T12:13:08.996Z,95076.00
2023-01-23T12:17:42.638Z,95102.00
2023-01-23T12:22:12.331Z,95098.00
2023-01-23T12:26:21.321Z,95092.00
2023-01-23T12:30:47.885Z,95095.00
2023-01-23T12:35:08.038Z,95087.00
2023-01-23T12:39:25.297Z,95105.00
2023-01-23T12:43:46.222Z,95078.00
2023-01-23T12:48:01.884Z,95070.00
2023-01-23T12:52:10.689Z,95080.00
2023-01-23T12:56:24.745Z,95078.00
2023-01-23T13:00:54.340Z,95085.00
2023-01-23T13:05:21.199Z,95072.00
2023-01-23T13:09:36.120Z,95098.00
2023-01-23T13:13:39.861Z,95102.00
2023-01-23T13:17:49.578Z,95098.00
2023-01-23T13:27:48.600Z,95088.00
2023-01-23T13:31:57.556Z,95079.00
2023-01-23T13:36:26.650Z,95099.00
2023-01-23T13:40:30.192Z,95103.00
2023-01-23T13:44:42.045Z,95110.00
2023-01-23T14:20:48.578Z,95107.00
2023-01-23T14:24:55.168Z,95102.00
2023-01-23T14:29:02.033Z,95110.00
2023-01-23T14:33:40.611Z,95112.00
2023-01-23T14:37:44.165Z,95108.00
2023-01-23T14:42:23.851Z,95117.00
2023-01-23T14:46:46.878Z,95099.00
2023-01-23T14:50:50.447Z,95119.00
2023-01-23T14:55:29.377Z,95107.00
2023-01-23T14:59:39.077Z,95118.00
2023-01-23T15:03:46.196Z,95110.00
2023-01-23T15:07:57.536Z,95115.00
2023-01-23T15:12:17.001Z,95100.00
2023-01-23T15:16:22.825Z,95080.00
2023-01-23T15:21:09.598Z,95088.00
2023-01-23T15:25:38.273Z,95101.00
2023-01-23T15:29:41.865Z,95116.00
2023-01-23T15:33:47.807Z,95113.00
2023-01-23T15:38:17.536Z,95130.00
2023-01-23T15:42:38.976Z,95110.00
2023-01-23T15:46:42.691Z,95116.00
2023-01-23T15:50:46.249Z,95141.00
2023-01-23T15:55:16.104Z,95136.00
2023-01-23T15:59:28.247Z,95111.00
2023-01-23T16:03:31.793Z,95140.00
2023-01-23T16:07:37.023Z,95131.00
2023-01-23T16:11:41.880Z,95152.00
2023-01-23T16:15:47.088Z,95134.00
2023-01-23T16:19:55.939Z,95137.00
2023-01-23T16:24:00.253Z,95141.00
2023-01-23T16:28:04.010Z,95146.00
2023-01-23T16:32:26.328Z,95164.00
2023-01-23T16:36:30.048Z,95164.00
2023-01-23T16:40:35.159Z,95155.00
2023-01-23T16:44:39.094Z,95165.00
2023-01-23T16:48:44.753Z,95167.00
2023-01-23T16:57:36.420Z,95156.00
2023-01-23T17:01:43.832Z,95172.00
2023-01-23T17:05:48.882Z,95165.00
2023-01-23T17:09:52.680Z,95187.00
2023-01-23T17:14:16.237Z,95169.00
2023-01-23T17:18:23.449Z,95201.00
2023-01-23T17:22:31.717Z,95187.00
2023-01-23T17:26:35.345Z,95205.00
2023-01-23T17:30:40.914Z,95210.00
2023-01-23T17:34:49.850Z,95216.00
2023-01-23T17:38:57.157Z,95188.00
2023-01-23T17:43:29.215Z,95192.00
2023-01-23T17:47:35.207Z,95209.00
2023-01-23T17:51:38.723Z,95207.00
2023-01-23T17:55:54.201Z,95190.00
2023-01-23T17:59:57.753Z,95191.00
2023-01-23T18:04:19.744Z,95197.00
2023-01-23T18:08:28.980Z,95207.00
2023-01-23T18:12:50.736Z,95193.00
2023-01-23T18:16:54.794Z,95188.00
2023-01-23T18:20:59.042Z,95189.00
2023-01-23T18:25:21.956Z,95224.00
2023-01-23T18:29:48.704Z,95210.00
2023-01-23T18:34:07.952Z,95207.00
2023-01-23T18:38:23.513Z,95195.00
2023-01-23T18:42:39.532Z,95211.00
2023-01-23T18:46:44.833Z,95217.00
2023-01-23T18:51:15.590Z,95235.00
2023-01-23T18:55:39.476Z,95226.00
2023-01-23T18:59:58.341Z,95193.00
2023-01-23T19:04:03.556Z,95213.00
2023-01-23T19:08:07.579Z,95217.00
2023-01-23T19:12:42.576Z,95230.00
2023-01-23T19:16:50.255Z,95221.00
2023-01-23T19:21:53.263Z,95226.00
2023-01-23T19:25:59.077Z,95229.00
2023-01-23T19:30:29.997Z,95230.00
2023-01-23T19:34:33.802Z,95235.00
2023-01-23T19:38:37.380Z,95220.00
2023-01-23T19:42:58.787Z,95238.00
2023-01-23T19:47:23.718Z,95242.00
2023-01-23T19:51:28.895Z,95241.00
2023-01-23T19:55:34.201Z,95242.00
2023-01-23T19:59:47.465Z,95255.00
2023-01-23T20:03:51.013Z,95258.00
2023-01-23T20:07:55.166Z,95242.00
2023-01-23T20:11:59.000Z,95251.00
2023-01-23T20:16:25.161Z,95246.00
2023-01-23T20:20:28.757Z,95243.00
2023-01-23T20:24:48.661Z,95228.00
2023-01-23T20:28:53.916Z,95240.00
2023-01-23T20:33:26.707Z,95245.00
2023-01-23T20:37:30.151Z,95209.00
2023-01-23T20:41:34.627Z,95244.00
2023-01-23T20:51:27.233Z,95237.00
2023-01-23T20:55:30.897Z,95232.00
2023-01-23T20:59:35.752Z,95267.00
2023-01-23T21:03:41.196Z,95261.00
2023-01-23T21:07:46.335Z,95281.00
2023-01-23T21:11:51.751Z,95274.00
2023-01-23T21:16:02.480Z,95275.00
2023-01-23T21:20:06.768Z,95279.00
2023-01-23T21:24:26.010Z,95286.00
2023-01-23T21:28:30.697Z,95273.00
2023-01-23T21:32:34.318Z,95293.00
2023-01-23T21:36:40.509Z,95281.00
2023-01-23T21:40:45.590Z,95295.00
2023-01-23T21:44:52.792Z,95290.00
2023-01-23T21:49:12.861Z,95284.00
2023-01-23T21:53:16.374Z,95301.00
2023-01-23T21:57:21.257Z,95296.00
2023-01-23T22:01:42.836Z,95297.00
2023-01-23T22:06:11.386Z,95299.00
2023-01-23T22:10:18.854Z,95296.00
2023-01-23T22:14:24.193Z,95285.00
2023-01-23T22:18:28.203Z,95290.00
2023-01-23T22:22:31.725Z,95259.00
2023-01-23T22:26:35.311Z,95290.00
2023-01-23T22:30:41.336Z,95303.00
2023-01-23T22:34:44.765Z,95277.00
2023-01-23T22:38:52.673Z,95310.00
2023-01-23T22:42:56.247Z,95289.00
2023-01-23T22:47:01.340Z,95289.00
2023-01-23T22:51:06.978Z,95307.00
2023-01-23T22:55:11.329Z,95311.00
2023-01-23T22:59:14.761Z,95302.00
2023-01-23T23:03:19.951Z,95306.00
2023-01-23T23:07:23.403Z,95305.00
2023-01-23T23:11:28.849Z,95305.00
2023-01-23T23:16:29.475Z,95316.00
2023-01-23T23:20:35.468Z,95321.00
2023-01-23T23:25:30.887Z,95318.00
2023-01-23T23:29:34.844Z,95306.00
2023-01-23T23:33:41.738Z,95317.00
2023-01-23T23:37:46.679Z,95306.00
2023-01-23T23:42:42.884Z,95314.00
2023-01-23T23:46:46.471Z,95315.00
2023-01-23T23:50:52.556Z,95314.00
2023-01-23T23:54:57.490Z,95284.00
2023-01-23T23:59:52.751Z,95320.00
